createdAt,value
2018-09-19T00:00:23.700Z,13.70
2018-09-19T00:02:52.636Z,13.60
2018-09-19T00:05:21.539Z,13.70
2018-09-19T00:07:50.357Z,13.60
2018-09-19T00:10:19.228Z,13.60
2018-09-19T00:12:48.080Z,14.60
2018-09-19T00:15:16.976Z,13.60
2018-09-19T00:17:45.802Z,13.60
2018-09-19T00:20:14.716Z,13.60
2018-09-19T00:22:43.704Z,13.60
2018-09-19T00:25:12.527Z,13.70
2018-09-19T00:27:41.419Z,13.60
2018-09-19T00:30:10.461Z,13.60
2018-09-19T00:32:39.320Z,13.60
2018-09-19T00:35:08.116Z,13.50
2018-09-19T00:37:36.961Z,13.60
2018-09-19T00:40:05.848Z,13.60
2018-09-19T00:42:34.693Z,13.60
2018-09-19T00:45:03.615Z,13.60
2018-09-19T00:47:32.431Z,13.60
2018-09-19T00:50:01.416Z,13.60
2018-09-19T00:52:30.420Z,13.60
2018-09-19T00:54:59.297Z,13.60
2018-09-19T00:57:28.155Z,13.60
2018-09-19T00:59:56.969Z,13.90
2018-09-19T01:02:25.767Z,15.00
2018-09-19T01:04:54.622Z,14.20
2018-09-19T01:07:23.469Z,14.30
2018-09-19T01:09:52.336Z,14.60
2018-09-19T01:12:21.150Z,14.80
2018-09-19T01:14:50.058Z,15.10
2018-09-19T01:17:18.946Z,15.20
2018-09-19T01:19:47.765Z,15.10
2018-09-19T01:22:16.679Z,15.40
2018-09-19T01:24:45.572Z,15.50
2018-09-19T01:29:43.427Z,15.40
2018-09-19T01:32:12.288Z,15.80
2018-09-19T01:34:41.148Z,15.90
2018-09-19T01:37:10.012Z,15.90
2018-09-19T01:39:38.851Z,15.90
2018-09-19T01:42:07.923Z,16.10
2018-09-19T01:44:36.824Z,16.10
2018-09-19T01:47:05.728Z,16.10
2018-09-19T01:49:34.632Z,16.20
2018-09-19T01:52:03.466Z,16.40
2018-09-19T01:54:32.366Z,16.60
2018-09-19T01:57:01.210Z,16.80
2018-09-19T01:59:30.090Z,16.80
2018-09-19T02:01:58.934Z,17.20
2018-09-19T02:04:27.819Z,17.50
2018-09-19T02:06:56.681Z,17.60
2018-09-19T02:09:25.542Z,17.70
2018-09-19T02:11:54.348Z,17.90
2018-09-19T02:14:23.257Z,18.40
2018-09-19T02:16:52.102Z,19.00
2018-09-19T02:19:20.992Z,19.10
2018-09-19T02:21:49.848Z,19.10
2018-09-19T02:24:18.797Z,19.40
2018-09-19T02:26:47.697Z,19.50
2018-09-19T02:29:16.617Z,20.20
2018-09-19T02:31:45.443Z,20.50
2018-09-19T02:34:14.353Z,20.60
2018-09-19T02:36:43.289Z,21.10
2018-09-19T02:39:12.146Z,21.30
2018-09-19T02:41:41.072Z,21.80
2018-09-19T02:44:09.932Z,22.00
2018-09-19T02:46:38.809Z,22.00
2018-09-19T02:49:07.632Z,22.20
2018-09-19T02:51:36.511Z,22.40
2018-09-19T02:54:05.343Z,22.60
2018-09-19T02:56:34.202Z,23.00
2018-09-19T02:59:03.064Z,22.50
2018-09-19T03:01:31.931Z,23.20
2018-09-19T03:04:00.811Z,22.70
2018-09-19T03:06:29.691Z,23.20
2018-09-19T03:08:58.514Z,23.20
2018-09-19T03:11:27.375Z,23.20
2018-09-19T03:13:56.265Z,23.10
2018-09-19T03:16:25.109Z,23.10
2018-09-19T03:18:53.934Z,24.20
2018-09-19T03:21:22.839Z,23.50
2018-09-19T03:23:51.683Z,23.20
2018-09-19T03:26:20.586Z,23.60
2018-09-19T03:28:49.469Z,23.90
2018-09-19T03:31:18.317Z,24.10
2018-09-19T03:33:47.230Z,24.50
2018-09-19T03:36:16.068Z,24.60
2018-09-19T03:38:44.893Z,24.60
2018-09-19T03:41:13.756Z,25.30
2018-09-19T03:43:42.683Z,25.10
2018-09-19T03:46:11.532Z,25.30
2018-09-19T03:48:40.332Z,25.70
2018-09-19T03:51:09.191Z,26.10
2018-09-19T03:53:38.059Z,26.10
2018-09-19T03:56:07.209Z,25.50
2018-09-19T03:58:36.079Z,26.30
2018-09-19T04:01:04.908Z,26.30
2018-09-19T04:03:33.812Z,26.50
2018-09-19T04:06:02.663Z,26.60
2018-09-19T04:08:31.502Z,26.60
2018-09-19T04:11:00.353Z,26.80
2018-09-19T04:13:29.256Z,26.90
2018-09-19T04:15:58.068Z,27.20
2018-09-19T04:18:26.959Z,27.40
2018-09-19T04:20:55.867Z,27.50
2018-09-19T04:23:24.701Z,27.80
2018-09-19T04:25:53.711Z,27.90
2018-09-19T04:28:22.539Z,28.10
2018-09-19T04:30:51.447Z,28.30
2018-09-19T04:33:20.285Z,28.60
2018-09-19T04:35:49.153Z,29.00
2018-09-19T04:38:18.054Z,29.10
2018-09-19T04:40:46.949Z,29.20
2018-09-19T04:43:15.850Z,29.30
2018-09-19T04:45:44.789Z,29.50
2018-09-19T04:48:13.669Z,29.70
2018-09-19T04:50:42.653Z,29.70
2018-09-19T04:53:11.483Z,29.60
2018-09-19T04:55:40.350Z,29.10
2018-09-19T04:58:09.264Z,30.20
2018-09-19T05:00:38.169Z,31.00
2018-09-19T05:03:07.062Z,31.20
2018-09-19T05:05:36.116Z,31.10
2018-09-19T05:08:04.981Z,30.90
2018-09-19T05:10:33.856Z,30.70
2018-09-19T05:13:02.796Z,30.60
2018-09-19T05:15:31.648Z,30.30
2018-09-19T05:18:01.471Z,30.00
2018-09-19T05:20:30.339Z,29.60
2018-09-19T05:22:59.245Z,29.60
2018-09-19T05:25:28.144Z,29.50
2018-09-19T05:27:57.062Z,29.30
2018-09-19T05:30:25.977Z,29.00
2018-09-19T05:32:54.857Z,28.70
2018-09-19T05:35:23.794Z,28.50
2018-09-19T05:37:52.677Z,28.50
2018-09-19T05:40:21.548Z,28.50
2018-09-19T05:42:50.485Z,28.20
2018-09-19T05:45:19.355Z,28.10
2018-09-19T05:47:48.297Z,28.00
2018-09-19T05:50:17.205Z,28.30
2018-09-19T05:52:46.111Z,27.90
2018-09-19T05:55:15.052Z,27.50
2018-09-19T05:57:43.884Z,27.10
2018-09-19T06:00:12.745Z,26.70
2018-09-19T06:02:41.624Z,26.40
2018-09-19T06:05:10.561Z,25.80
2018-09-19T06:07:39.414Z,25.60
2018-09-19T06:10:08.312Z,25.00
2018-09-19T06:12:37.243Z,24.40
2018-09-19T06:15:06.062Z,23.90
2018-09-19T06:17:34.934Z,24.00
2018-09-19T06:20:03.872Z,24.10
2018-09-19T06:22:32.726Z,23.40
2018-09-19T06:25:01.579Z,22.50
2018-09-19T06:27:30.449Z,21.40
2018-09-19T06:29:59.314Z,21.60
2018-09-19T06:32:28.134Z,21.10
2018-09-19T06:34:56.937Z,21.40
2018-09-19T06:37:25.792Z,21.30
2018-09-19T06:39:54.720Z,21.10
2018-09-19T06:42:23.582Z,20.30
2018-09-19T06:44:52.476Z,20.20
2018-09-19T06:47:21.380Z,20.30
2018-09-19T06:49:50.280Z,20.60
2018-09-19T06:52:19.192Z,20.20
2018-09-19T06:54:48.049Z,20.10
2018-09-19T06:57:16.934Z,20.20
2018-09-19T06:59:45.844Z,19.90
2018-09-19T07:02:14.744Z,19.60
2018-09-19T07:04:43.653Z,19.20
2018-09-19T07:07:12.504Z,19.30
2018-09-19T07:09:41.447Z,18.80
2018-09-19T07:12:10.298Z,18.50
2018-09-19T07:14:39.223Z,18.20
2018-09-19T07:17:08.083Z,18.30
2018-09-19T07:19:37.547Z,19.00
2018-09-19T07:22:06.630Z,18.80
2018-09-19T07:24:35.812Z,19.30
2018-09-19T07:27:04.878Z,19.80
2018-09-19T07:29:33.923Z,19.80
2018-09-19T07:32:02.824Z,19.50
2018-09-19T07:34:31.779Z,18.50
2018-09-19T07:37:00.606Z,18.10
2018-09-19T07:39:29.479Z,18.80
2018-09-19T07:41:58.412Z,18.00
2018-09-19T07:44:27.331Z,16.90
2018-09-19T07:46:56.184Z,16.00
2018-09-19T07:49:25.026Z,15.80
2018-09-19T07:51:53.926Z,16.00
2018-09-19T07:54:22.825Z,15.10
2018-09-19T07:56:51.686Z,14.40
2018-09-19T07:59:20.538Z,15.00
2018-09-19T08:01:49.394Z,15.10
2018-09-19T08:04:18.234Z,14.40
2018-09-19T08:06:47.083Z,14.40
2018-09-19T08:09:15.996Z,14.60
2018-09-19T08:11:44.775Z,13.70
2018-09-19T08:14:13.614Z,13.60
2018-09-19T08:16:42.513Z,14.00
2018-09-19T08:19:11.414Z,14.00
2018-09-19T08:21:40.291Z,13.50
2018-09-19T08:24:09.209Z,13.30
2018-09-19T08:26:38.048Z,13.40
2018-09-19T08:29:07.036Z,12.70
2018-09-19T08:31:35.847Z,11.80
2018-09-19T08:34:04.684Z,11.70
2018-09-19T08:36:33.538Z,11.50
2018-09-19T08:39:02.400Z,11.60
2018-09-19T08:41:31.321Z,11.50
2018-09-19T08:44:00.184Z,10.80
2018-09-19T08:46:29.021Z,11.00
2018-09-19T08:48:57.879Z,11.20
2018-09-19T08:51:26.769Z,11.10
2018-09-19T08:53:55.657Z,11.00
2018-09-19T08:56:24.624Z,10.70
2018-09-19T08:58:53.472Z,10.90
2018-09-19T09:01:22.351Z,10.30
2018-09-19T09:03:51.205Z,10.40
2018-09-19T09:06:20.082Z,10.80
2018-09-19T09:08:48.937Z,11.00
2018-09-19T09:11:17.813Z,10.90
2018-09-19T09:13:46.975Z,11.00
2018-09-19T09:16:15.807Z,10.50
2018-09-19T09:18:44.746Z,10.50
2018-09-19T09:21:13.685Z,10.30
2018-09-19T09:23:42.538Z,10.00
2018-09-19T09:26:11.444Z,11.00
2018-09-19T09:28:40.243Z,10.30
2018-09-19T09:31:09.125Z,9.70
2018-09-19T09:33:37.986Z,9.50
2018-09-19T09:36:06.872Z,8.00
2018-09-19T09:38:36.030Z,8.10
2018-09-19T09:41:04.925Z,7.50
2018-09-19T09:43:33.796Z,6.90
2018-09-19T09:46:02.696Z,6.80
2018-09-19T09:48:31.527Z,6.00
2018-09-19T09:51:00.327Z,6.20
2018-09-19T09:53:29.206Z,6.00
2018-09-19T09:55:58.196Z,5.90
2018-09-19T09:58:27.052Z,5.80
2018-09-19T10:00:55.955Z,5.70
2018-09-19T10:03:24.793Z,6.20
2018-09-19T10:05:53.622Z,5.10
2018-09-19T10:08:22.552Z,4.70
2018-09-19T10:10:51.383Z,5.10
2018-09-19T10:13:20.223Z,4.90
2018-09-19T10:15:49.112Z,5.10
2018-09-19T10:18:17.922Z,4.80
2018-09-19T10:20:46.815Z,4.20
2018-09-19T10:23:15.764Z,4.10
2018-09-19T10:25:44.746Z,3.50
2018-09-19T10:28:13.592Z,3.00
2018-09-19T10:30:42.439Z,2.90
2018-09-19T10:33:11.358Z,2.40
2018-09-19T10:35:40.222Z,2.40
2018-09-19T10:38:09.144Z,1.00
2018-09-19T10:40:38.017Z,1.00
2018-09-19T10:43:06.860Z,1.00
2018-09-19T10:45:35.728Z,1.00
2018-09-19T10:48:04.575Z,1.00
2018-09-19T10:50:33.456Z,1.00
2018-09-19T10:53:02.319Z,1.00
2018-09-19T10:55:31.491Z,1.00
2018-09-19T10:58:00.461Z,1.00
2018-09-19T11:00:30.117Z,1.00
2018-09-19T11:02:59.002Z,1.00
2018-09-19T11:05:27.892Z,1.00
2018-09-19T11:07:56.711Z,1.00
2018-09-19T11:10:25.656Z,1.00
2018-09-19T11:12:54.510Z,1.00
2018-09-19T11:15:23.385Z,1.00
2018-09-19T11:17:52.206Z,1.00
2018-09-19T11:20:21.070Z,1.00
2018-09-19T11:22:49.989Z,1.00
2018-09-19T11:25:18.911Z,1.00
2018-09-19T11:27:47.739Z,1.00
2018-09-19T11:30:16.618Z,1.00
2018-09-19T11:32:45.447Z,1.00
2018-09-19T11:35:14.267Z,1.00
2018-09-19T11:37:43.236Z,1.00
2018-09-19T11:40:12.088Z,1.00
2018-09-19T11:42:40.986Z,1.00
2018-09-19T11:45:09.909Z,1.00
2018-09-19T11:47:38.863Z,1.00
2018-09-19T11:50:07.746Z,1.00
2018-09-19T11:52:36.610Z,1.00
2018-09-19T11:55:05.773Z,1.00
2018-09-19T11:57:34.699Z,1.00
2018-09-19T12:00:03.524Z,1.00
2018-09-19T12:02:32.417Z,1.00
2018-09-19T12:05:01.267Z,1.00
2018-09-19T12:07:30.505Z,1.00
2018-09-19T12:09:59.375Z,1.00
2018-09-19T12:12:28.268Z,1.00
2018-09-19T12:14:57.128Z,1.00
2018-09-19T12:17:26.028Z,1.00
2018-09-19T12:19:55.331Z,1.00
2018-09-19T12:22:24.219Z,1.00
2018-09-19T12:24:53.058Z,1.00
2018-09-19T12:27:21.959Z,1.00
2018-09-19T12:29:50.816Z,1.00
2018-09-19T12:32:19.686Z,1.00
2018-09-19T12:34:48.581Z,1.00
2018-09-19T12:37:17.466Z,1.00
2018-09-19T12:39:46.309Z,1.00
2018-09-19T12:42:15.197Z,1.00
2018-09-19T12:44:44.103Z,1.00
2018-09-19T12:47:12.936Z,1.00
2018-09-19T12:49:41.768Z,1.00
2018-09-19T12:52:10.918Z,1.00
2018-09-19T12:54:39.718Z,1.00
2018-09-19T12:57:08.580Z,1.00
2018-09-19T12:59:37.410Z,1.00
2018-09-19T13:02:06.252Z,1.00
2018-09-19T13:04:35.099Z,1.00
2018-09-19T13:07:03.980Z,1.00
2018-09-19T13:09:32.844Z,1.00
2018-09-19T13:12:01.639Z,1.00
2018-09-19T13:14:30.524Z,1.00
2018-09-19T13:16:59.356Z,1.00
2018-09-19T13:19:28.238Z,1.00
2018-09-19T13:21:57.125Z,1.00
2018-09-19T13:24:25.985Z,1.00
2018-09-19T13:26:54.850Z,1.00
2018-09-19T13:29:23.677Z,1.00
2018-09-19T13:31:53.225Z,1.00
2018-09-19T13:34:22.110Z,1.00
2018-09-19T13:36:50.989Z,1.00
2018-09-19T13:39:19.836Z,1.00
2018-09-19T13:41:48.722Z,1.00
2018-09-19T13:44:17.555Z,1.00
2018-09-19T13:46:46.487Z,1.00
2018-09-19T13:49:31.230Z,1.00
2018-09-19T13:52:00.092Z,1.00
2018-09-19T13:54:28.954Z,1.00
2018-09-19T13:56:57.757Z,1.00
2018-09-19T13:59:26.602Z,1.00
2018-09-19T14:01:55.462Z,1.00
2018-09-19T14:04:24.388Z,1.00
2018-09-19T14:06:53.171Z,1.00
2018-09-19T14:09:21.990Z,1.00
2018-09-19T14:11:50.868Z,1.00
2018-09-19T14:14:19.679Z,1.00
2018-09-19T14:16:48.529Z,1.00
2018-09-19T14:19:17.664Z,1.00
2018-09-19T14:21:46.556Z,1.00
2018-09-19T14:24:15.536Z,1.00
2018-09-19T14:26:44.505Z,1.00
2018-09-19T14:29:13.356Z,1.00
2018-09-19T14:31:42.257Z,1.00
2018-09-19T14:34:11.164Z,1.00
2018-09-19T14:36:40.036Z,1.00
2018-09-19T14:39:09.265Z,1.00
2018-09-19T14:41:38.181Z,1.00
2018-09-19T14:44:07.043Z,1.00
2018-09-19T14:46:35.952Z,1.00
2018-09-19T14:49:04.902Z,1.00
2018-09-19T14:51:33.963Z,1.00
2018-09-19T14:54:03.099Z,1.00
2018-09-19T14:56:31.980Z,1.00
2018-09-19T14:59:00.889Z,1.00
2018-09-19T15:01:29.715Z,1.00
2018-09-19T15:03:58.560Z,1.00
2018-09-19T15:06:27.437Z,1.00
2018-09-19T15:08:56.284Z,1.00
2018-09-19T15:11:25.078Z,1.00
2018-09-19T15:13:54.041Z,1.00
2018-09-19T15:16:22.908Z,1.00
2018-09-19T15:18:51.787Z,1.00
2018-09-19T15:21:20.669Z,1.00
2018-09-19T15:23:49.538Z,1.00
2018-09-19T15:26:18.384Z,1.00
2018-09-19T15:28:47.296Z,1.00
2018-09-19T15:31:16.154Z,1.00
2018-09-19T15:33:45.004Z,1.00
2018-09-19T15:36:13.959Z,1.00
2018-09-19T15:38:42.787Z,1.00
2018-09-19T15:41:11.719Z,1.00
2018-09-19T15:43:40.631Z,1.00
2018-09-19T15:46:09.468Z,1.00
2018-09-19T15:48:38.302Z,1.00
2018-09-19T15:51:07.201Z,1.00
2018-09-19T15:53:36.095Z,1.00
2018-09-19T15:56:04.924Z,1.00
2018-09-19T15:58:33.829Z,1.00
2018-09-19T16:01:02.642Z,1.00
2018-09-19T16:03:31.542Z,1.00
2018-09-19T16:06:00.428Z,1.00
2018-09-19T16:08:29.292Z,1.00
2018-09-19T16:10:58.164Z,1.00
2018-09-19T16:16:24.308Z,1.00
2018-09-19T16:18:53.187Z,1.00
2018-09-19T16:21:22.070Z,1.00
2018-09-19T16:23:50.925Z,1.00
2018-09-19T16:26:19.890Z,1.00
2018-09-19T16:28:48.803Z,1.00
2018-09-19T16:31:17.700Z,1.00
2018-09-19T16:33:46.609Z,1.00
2018-09-19T16:36:15.519Z,1.00
2018-09-19T16:38:44.395Z,1.00
2018-09-19T16:41:13.261Z,1.00
2018-09-19T16:43:42.173Z,1.00
2018-09-19T16:46:11.032Z,1.00
2018-09-19T16:48:39.931Z,1.00
2018-09-19T16:51:08.776Z,1.00
2018-09-19T16:53:37.719Z,1.00
2018-09-19T16:56:06.579Z,1.00
2018-09-19T16:58:35.516Z,1.00
2018-09-19T17:01:04.343Z,1.00
2018-09-19T17:03:33.271Z,1.00
2018-09-19T17:06:02.133Z,1.00
2018-09-19T17:08:30.969Z,1.00
2018-09-19T17:10:59.814Z,1.00
2018-09-19T17:13:28.721Z,1.00
2018-09-19T17:15:57.624Z,1.30
2018-09-19T17:18:26.450Z,1.90
2018-09-19T17:20:55.283Z,1.90
2018-09-19T17:23:24.214Z,2.00
2018-09-19T17:25:53.123Z,2.20
2018-09-19T17:28:21.951Z,2.30
2018-09-19T17:30:50.797Z,2.40
2018-09-19T17:33:19.793Z,2.40
2018-09-19T17:35:48.660Z,2.50
2018-09-19T17:38:17.511Z,2.60
2018-09-19T17:40:46.365Z,2.90
2018-09-19T17:43:15.567Z,3.30
2018-09-19T17:45:46.728Z,3.60
2018-09-19T17:48:15.616Z,3.80
2018-09-19T17:50:44.512Z,5.00
2018-09-19T17:53:13.391Z,4.20
2018-09-19T17:55:42.245Z,4.50
2018-09-19T17:58:11.132Z,4.60
2018-09-19T18:00:39.946Z,4.80
2018-09-19T18:03:08.861Z,4.90
2018-09-19T18:05:37.764Z,4.90
2018-09-19T18:08:06.701Z,4.90
2018-09-19T18:10:35.596Z,4.90
2018-09-19T18:13:04.434Z,4.90
2018-09-19T18:15:33.336Z,4.80
2018-09-19T18:18:02.195Z,4.80
2018-09-19T18:20:31.108Z,5.00
2018-09-19T18:23:00.025Z,5.20
2018-09-19T18:25:28.896Z,5.10
2018-09-19T18:27:57.921Z,5.20
2018-09-19T18:30:26.740Z,5.30
2018-09-19T18:32:55.621Z,5.50
2018-09-19T18:35:24.539Z,5.60
2018-09-19T18:37:53.457Z,5.70
2018-09-19T18:40:22.438Z,5.80
2018-09-19T18:42:51.340Z,5.70
2018-09-19T18:45:20.223Z,5.90
2018-09-19T18:47:49.106Z,6.10
2018-09-19T18:50:18.006Z,6.20
2018-09-19T18:52:46.906Z,6.10
2018-09-19T18:55:15.777Z,6.10
2018-09-19T18:57:44.701Z,6.20
2018-09-19T19:00:13.624Z,6.30
2018-09-19T19:02:42.513Z,6.40
2018-09-19T19:05:12.003Z,6.90
2018-09-19T19:07:40.831Z,6.60
2018-09-19T19:10:09.660Z,6.60
2018-09-19T19:12:38.608Z,6.80
2018-09-19T19:15:07.497Z,6.80
2018-09-19T19:17:36.346Z,6.90
2018-09-19T19:20:05.199Z,7.00
2018-09-19T19:22:34.090Z,7.30
2018-09-19T19:25:02.932Z,7.40
2018-09-19T19:27:31.791Z,7.40
2018-09-19T19:30:00.689Z,7.40
2018-09-19T19:32:29.551Z,7.40
2018-09-19T19:34:58.454Z,7.40
2018-09-19T19:37:27.348Z,7.30
2018-09-19T19:39:56.183Z,7.30
2018-09-19T19:42:25.085Z,7.50
2018-09-19T19:44:53.929Z,7.80
2018-09-19T19:47:22.728Z,7.90
2018-09-19T19:49:51.675Z,8.00
2018-09-19T19:52:20.564Z,8.10
2018-09-19T19:54:49.407Z,9.00
2018-09-19T19:57:18.283Z,8.30
2018-09-19T19:59:47.164Z,8.70
2018-09-19T20:02:16.057Z,8.60
2018-09-19T20:04:44.984Z,8.70
2018-09-19T20:07:13.841Z,8.80
2018-09-19T20:09:42.775Z,8.80
2018-09-19T20:12:11.617Z,8.80
2018-09-19T20:14:40.529Z,9.10
2018-09-19T20:17:09.408Z,9.90
2018-09-19T20:19:38.282Z,9.10
2018-09-19T20:22:09.316Z,9.10
2018-09-19T20:24:38.388Z,9.30
2018-09-19T20:27:07.619Z,9.20
2018-09-19T20:29:36.520Z,9.20
2018-09-19T20:32:05.404Z,9.40
2018-09-19T20:34:34.247Z,9.50
2018-09-19T20:37:03.096Z,9.60
2018-09-19T20:39:31.957Z,9.80
2018-09-19T20:42:00.837Z,9.90
2018-09-19T20:44:29.728Z,9.90
2018-09-19T20:46:58.936Z,10.10
2018-09-19T20:49:27.769Z,11.10
2018-09-19T20:51:56.694Z,10.20
2018-09-19T20:54:25.600Z,10.30
2018-09-19T20:56:54.435Z,10.40
2018-09-19T20:59:23.264Z,10.50
2018-09-19T21:01:52.175Z,10.40
2018-09-19T21:04:21.178Z,10.30
2018-09-19T21:06:49.937Z,10.20
2018-09-19T21:09:18.833Z,10.20
2018-09-19T21:11:47.757Z,10.30
2018-09-19T21:14:16.633Z,10.40
2018-09-19T21:16:45.499Z,10.70
2018-09-19T21:19:14.352Z,10.60
2018-09-19T21:21:43.861Z,10.80
2018-09-19T21:24:12.763Z,11.10
2018-09-19T21:26:41.652Z,11.10
2018-09-19T21:29:10.501Z,11.30
2018-09-19T21:31:39.375Z,11.60
2018-09-19T21:34:08.563Z,11.90
2018-09-19T21:36:37.475Z,12.10
2018-09-19T21:39:09.410Z,12.00
2018-09-19T21:41:38.670Z,12.20
2018-09-19T21:44:07.600Z,12.10
2018-09-19T21:46:36.470Z,12.40
2018-09-19T21:49:05.498Z,12.50
2018-09-19T21:51:34.396Z,12.40
2018-09-19T21:54:03.218Z,12.50
2018-09-19T21:56:32.058Z,12.60
2018-09-19T21:59:00.911Z,12.50
2018-09-19T22:01:35.259Z,12.40
2018-09-19T22:04:04.186Z,12.50
2018-09-19T22:06:33.044Z,12.60
2018-09-19T22:09:01.936Z,12.90
2018-09-19T22:11:30.769Z,13.10
2018-09-19T22:13:59.607Z,13.10
2018-09-19T22:16:28.509Z,13.10
2018-09-19T22:18:57.356Z,13.00
2018-09-19T22:21:26.208Z,13.10
2018-09-19T22:23:55.074Z,13.20
2018-09-19T22:26:23.950Z,13.20
2018-09-19T22:28:53.001Z,13.30
2018-09-19T22:31:21.878Z,13.30
2018-09-19T22:33:50.729Z,13.30
2018-09-19T22:36:19.572Z,13.40
2018-09-19T22:38:48.448Z,13.70
2018-09-19T22:41:17.539Z,14.00
2018-09-19T22:43:46.588Z,13.80
2018-09-19T22:46:15.519Z,13.80
2018-09-19T22:48:44.421Z,13.80
2018-09-19T22:51:13.323Z,14.10
2018-09-19T22:53:42.204Z,14.00
2018-09-19T22:56:11.097Z,14.10
2018-09-19T22:58:39.983Z,14.00
2018-09-19T23:01:08.842Z,14.80
2018-09-19T23:03:37.736Z,13.90
2018-09-19T23:06:06.724Z,13.90
2018-09-19T23:08:35.631Z,14.00
2018-09-19T23:11:04.455Z,14.30
2018-09-19T23:13:33.386Z,14.30
2018-09-19T23:16:02.279Z,14.50
2018-09-19T23:18:31.197Z,14.60
2018-09-19T23:21:00.062Z,14.90
2018-09-19T23:23:28.960Z,14.90
2018-09-19T23:25:57.852Z,15.00
2018-09-19T23:28:26.714Z,14.90
2018-09-19T23:30:55.541Z,14.90
2018-09-19T23:33:24.363Z,14.90
2018-09-19T23:35:53.349Z,14.90
2018-09-19T23:38:22.200Z,14.80
2018-09-19T23:40:51.072Z,14.80
2018-09-19T23:43:19.956Z,14.70
2018-09-19T23:45:48.869Z,14.80
2018-09-19T23:48:17.740Z,14.80
2018-09-19T23:50:46.604Z,14.80
2018-09-19T23:53:15.537Z,14.80
2018-09-19T23:55:44.391Z,14.70
2018-09-19T23:58:13.302Z,14.70
